sensor_id;sensor_type;location;lat;lon;timestamp;P1;durP1;ratioP1;P2;durP2;ratioP2
17151;SDS011;8691;50.828;4.700;2023-12-14T00:01:15;31.27;;;19.43;;
17151;SDS011;8691;50.828;4.700;2023-12-14T00:03:41;30.25;;;18.60;;
17151;SDS011;8691;50.828;4.700;2023-12-14T00:06:08;32.10;;;19.03;;
17151;SDS011;8691;50.828;4.700;2023-12-14T00:08:35;31.98;;;19.60;;
17151;SDS011;8691;50.828;4.700;2023-12-14T00:11:05;30.92;;;19.67;;
17151;SDS011;8691;50.828;4.700;2023-12-14T00:13:32;31.92;;;20.08;;
17151;SDS011;8691;50.828;4.700;2023-12-14T00:15:59;31.05;;;20.45;;
17151;SDS011;8691;50.828;4.700;2023-12-14T00:18:26;32.97;;;20.67;;
17151;SDS011;8691;50.828;4.700;2023-12-14T00:20:53;31.77;;;20.62;;
17151;SDS011;8691;50.828;4.700;2023-12-14T00:23:23;32.67;;;20.45;;
17151;SDS011;8691;50.828;4.700;2023-12-14T00:25:49;32.40;;;20.50;;
17151;SDS011;8691;50.828;4.700;2023-12-14T00:28:16;34.83;;;20.60;;
17151;SDS011;8691;50.828;4.700;2023-12-14T00:30:43;33.33;;;21.10;;
17151;SDS011;8691;50.828;4.700;2023-12-14T00:33:10;32.97;;;20.23;;
17151;SDS011;8691;50.828;4.700;2023-12-14T00:35:37;34.45;;;21.50;;
17151;SDS011;8691;50.828;4.700;2023-12-14T00:38:04;33.05;;;20.33;;
17151;SDS011;8691;50.828;4.700;2023-12-14T00:40:31;33.42;;;20.52;;
17151;SDS011;8691;50.828;4.700;2023-12-14T00:42:58;34.72;;;20.60;;
17151;SDS011;8691;50.828;4.700;2023-12-14T00:45:24;31.05;;;20.15;;
17151;SDS011;8691;50.828;4.700;2023-12-14T00:47:51;35.27;;;19.60;;
17151;SDS011;8691;50.828;4.700;2023-12-14T00:50:18;32.75;;;20.33;;
17151;SDS011;8691;50.828;4.700;2023-12-14T00:52:46;34.30;;;21.35;;
17151;SDS011;8691;50.828;4.700;2023-12-14T00:55:13;36.17;;;21.27;;
17151;SDS011;8691;50.828;4.700;2023-12-14T00:57:40;32.67;;;20.65;;
17151;SDS011;8691;50.828;4.700;2023-12-14T01:00:07;34.22;;;21.17;;
17151;SDS011;8691;50.828;4.700;2023-12-14T01:02:34;34.53;;;21.23;;
17151;SDS011;8691;50.828;4.700;2023-12-14T01:05:01;33.17;;;20.50;;
17151;SDS011;8691;50.828;4.700;2023-12-14T01:07:28;34.25;;;21.15;;
17151;SDS011;8691;50.828;4.700;2023-12-14T01:09:55;32.97;;;20.05;;
17151;SDS011;8691;50.828;4.700;2023-12-14T01:12:22;34.03;;;20.88;;
17151;SDS011;8691;50.828;4.700;2023-12-14T01:14:49;32.80;;;20.62;;
17151;SDS011;8691;50.828;4.700;2023-12-14T01:17:16;35.75;;;22.35;;
17151;SDS011;8691;50.828;4.700;2023-12-14T01:19:42;36.95;;;21.42;;
17151;SDS011;8691;50.828;4.700;2023-12-14T01:22:10;36.22;;;21.23;;
17151;SDS011;8691;50.828;4.700;2023-12-14T01:24:36;33.33;;;20.70;;
17151;SDS011;8691;50.828;4.700;2023-12-14T01:27:03;36.60;;;21.90;;
17151;SDS011;8691;50.828;4.700;2023-12-14T01:29:30;34.22;;;20.27;;
17151;SDS011;8691;50.828;4.700;2023-12-14T01:31:57;27.73;;;15.50;;
17151;SDS011;8691;50.828;4.700;2023-12-14T01:34:24;33.70;;;20.45;;
17151;SDS011;8691;50.828;4.700;2023-12-14T01:36:51;38.92;;;22.77;;
17151;SDS011;8691;50.828;4.700;2023-12-14T01:39:17;34.45;;;20.27;;
17151;SDS011;8691;50.828;4.700;2023-12-14T01:41:44;37.72;;;21.80;;
17151;SDS011;8691;50.828;4.700;2023-12-14T01:44:11;35.53;;;20.77;;
17151;SDS011;8691;50.828;4.700;2023-12-14T01:46:38;28.60;;;15.23;;
17151;SDS011;8691;50.828;4.700;2023-12-14T01:49:05;37.75;;;21.10;;
17151;SDS011;8691;50.828;4.700;2023-12-14T01:51:32;34.90;;;19.95;;
17151;SDS011;8691;50.828;4.700;2023-12-14T01:53:59;35.97;;;20.33;;
17151;SDS011;8691;50.828;4.700;2023-12-14T01:56:26;29.03;;;15.60;;
17151;SDS011;8691;50.828;4.700;2023-12-14T01:58:53;28.77;;;15.27;;
17151;SDS011;8691;50.828;4.700;2023-12-14T02:01:25;32.47;;;19.30;;
17151;SDS011;8691;50.828;4.700;2023-12-14T02:03:50;30.45;;;16.90;;
17151;SDS011;8691;50.828;4.700;2023-12-14T02:06:17;32.78;;;19.88;;
17151;SDS011;8691;50.828;4.700;2023-12-14T02:08:44;31.87;;;20.87;;
17151;SDS011;8691;50.828;4.700;2023-12-14T02:11:11;33.80;;;20.37;;
17151;SDS011;8691;50.828;4.700;2023-12-14T02:13:38;34.37;;;20.37;;
17151;SDS011;8691;50.828;4.700;2023-12-14T02:16:05;34.13;;;20.23;;
17151;SDS011;8691;50.828;4.700;2023-12-14T02:18:32;32.70;;;20.17;;
17151;SDS011;8691;50.828;4.700;2023-12-14T02:21:00;34.17;;;19.73;;
17151;SDS011;8691;50.828;4.700;2023-12-14T02:23:28;31.67;;;18.60;;
17151;SDS011;8691;50.828;4.700;2023-12-14T02:25:55;27.92;;;16.95;;
17151;SDS011;8691;50.828;4.700;2023-12-14T02:28:22;27.48;;;17.42;;
17151;SDS011;8691;50.828;4.700;2023-12-14T02:30:49;26.17;;;16.75;;
17151;SDS011;8691;50.828;4.700;2023-12-14T02:33:16;28.02;;;15.57;;
17151;SDS011;8691;50.828;4.700;2023-12-14T02:35:43;24.00;;;14.88;;
17151;SDS011;8691;50.828;4.700;2023-12-14T02:38:11;23.73;;;14.00;;
17151;SDS011;8691;50.828;4.700;2023-12-14T02:40:39;22.00;;;13.05;;
17151;SDS011;8691;50.828;4.700;2023-12-14T02:43:06;18.70;;;12.02;;
17151;SDS011;8691;50.828;4.700;2023-12-14T02:45:33;19.07;;;12.20;;
17151;SDS011;8691;50.828;4.700;2023-12-14T02:48:00;17.37;;;11.60;;
17151;SDS011;8691;50.828;4.700;2023-12-14T02:50:27;17.93;;;12.47;;
17151;SDS011;8691;50.828;4.700;2023-12-14T02:52:54;20.20;;;12.82;;
17151;SDS011;8691;50.828;4.700;2023-12-14T02:55:21;18.77;;;12.40;;
17151;SDS011;8691;50.828;4.700;2023-12-14T02:57:47;18.17;;;9.40;;
17151;SDS011;8691;50.828;4.700;2023-12-14T03:00:14;20.52;;;13.80;;
17151;SDS011;8691;50.828;4.700;2023-12-14T03:02:41;22.40;;;13.68;;
17151;SDS011;8691;50.828;4.700;2023-12-14T03:05:08;21.90;;;14.10;;
17151;SDS011;8691;50.828;4.700;2023-12-14T03:07:34;19.10;;;10.53;;
17151;SDS011;8691;50.828;4.700;2023-12-14T03:10:02;20.93;;;13.33;;
17151;SDS011;8691;50.828;4.700;2023-12-14T03:12:28;21.62;;;13.82;;
17151;SDS011;8691;50.828;4.700;2023-12-14T03:14:55;20.70;;;13.18;;
17151;SDS011;8691;50.828;4.700;2023-12-14T03:17:22;20.12;;;13.43;;
17151;SDS011;8691;50.828;4.700;2023-12-14T03:19:50;19.70;;;12.48;;
17151;SDS011;8691;50.828;4.700;2023-12-14T03:22:17;15.17;;;9.53;;
17151;SDS011;8691;50.828;4.700;2023-12-14T03:24:45;19.10;;;12.85;;
17151;SDS011;8691;50.828;4.700;2023-12-14T03:27:11;17.10;;;9.90;;
17151;SDS011;8691;50.828;4.700;2023-12-14T03:29:38;18.45;;;12.48;;
17151;SDS011;8691;50.828;4.700;2023-12-14T03:32:05;21.73;;;13.07;;
17151;SDS011;8691;50.828;4.700;2023-12-14T03:34:32;20.40;;;13.00;;
17151;SDS011;8691;50.828;4.700;2023-12-14T03:36:59;19.00;;;12.50;;
17151;SDS011;8691;50.828;4.700;2023-12-14T03:39:26;19.83;;;12.23;;
17151;SDS011;8691;50.828;4.700;2023-12-14T03:41:53;21.80;;;12.80;;
17151;SDS011;8691;50.828;4.700;2023-12-14T03:44:20;16.77;;;10.33;;
17151;SDS011;8691;50.828;4.700;2023-12-14T03:46:47;19.80;;;12.65;;
17151;SDS011;8691;50.828;4.700;2023-12-14T03:49:13;19.35;;;12.48;;
17151;SDS011;8691;50.828;4.700;2023-12-14T03:51:40;19.25;;;12.60;;
17151;SDS011;8691;50.828;4.700;2023-12-14T03:54:07;18.35;;;12.23;;
17151;SDS011;8691;50.828;4.700;2023-12-14T03:56:34;17.02;;;11.55;;
17151;SDS011;8691;50.828;4.700;2023-12-14T03:59:01;16.27;;;11.23;;
17151;SDS011;8691;50.828;4.700;2023-12-14T04:01:28;16.60;;;11.35;;
17151;SDS011;8691;50.828;4.700;2023-12-14T04:03:55;14.10;;;10.20;;
17151;SDS011;8691;50.828;4.700;2023-12-14T04:06:22;14.82;;;10.45;;
17151;SDS011;8691;50.828;4.700;2023-12-14T04:08:49;14.85;;;10.40;;
17151;SDS011;8691;50.828;4.700;2023-12-14T04:11:15;14.35;;;9.77;;
17151;SDS011;8691;50.828;4.700;2023-12-14T04:13:42;16.08;;;10.65;;
17151;SDS011;8691;50.828;4.700;2023-12-14T04:16:09;14.37;;;8.33;;
17151;SDS011;8691;50.828;4.700;2023-12-14T04:18:36;17.55;;;12.10;;
17151;SDS011;8691;50.828;4.700;2023-12-14T04:21:03;16.40;;;12.07;;
17151;SDS011;8691;50.828;4.700;2023-12-14T04:23:30;14.68;;;11.30;;
17151;SDS011;8691;50.828;4.700;2023-12-14T04:25:57;14.73;;;10.95;;
17151;SDS011;8691;50.828;4.700;2023-12-14T04:28:23;15.35;;;11.00;;
17151;SDS011;8691;50.828;4.700;2023-12-14T04:30:50;13.93;;;10.50;;
17151;SDS011;8691;50.828;4.700;2023-12-14T04:33:17;14.15;;;10.30;;
17151;SDS011;8691;50.828;4.700;2023-12-14T04:35:44;12.87;;;9.03;;
17151;SDS011;8691;50.828;4.700;2023-12-14T04:38:12;11.75;;;9.10;;
17151;SDS011;8691;50.828;4.700;2023-12-14T04:40:39;9.93;;;7.95;;
17151;SDS011;8691;50.828;4.700;2023-12-14T04:43:06;9.95;;;8.32;;
17151;SDS011;8691;50.828;4.700;2023-12-14T04:45:33;10.15;;;8.20;;
17151;SDS011;8691;50.828;4.700;2023-12-14T04:48:00;10.00;;;8.18;;
17151;SDS011;8691;50.828;4.700;2023-12-14T04:50:28;10.47;;;7.37;;
17151;SDS011;8691;50.828;4.700;2023-12-14T04:52:55;10.05;;;8.18;;
17151;SDS011;8691;50.828;4.700;2023-12-14T04:55:23;11.50;;;8.30;;
17151;SDS011;8691;50.828;4.700;2023-12-14T04:57:50;13.00;;;9.62;;
17151;SDS011;8691;50.828;4.700;2023-12-14T05:00:18;11.17;;;8.17;;
17151;SDS011;8691;50.828;4.700;2023-12-14T05:02:47;10.87;;;7.40;;
17151;SDS011;8691;50.828;4.700;2023-12-14T05:05:15;12.93;;;10.80;;
17151;SDS011;8691;50.828;4.700;2023-12-14T05:07:42;12.55;;;10.45;;
17151;SDS011;8691;50.828;4.700;2023-12-14T05:10:09;11.47;;;9.93;;
17151;SDS011;8691;50.828;4.700;2023-12-14T05:12:36;12.32;;;10.55;;
17151;SDS011;8691;50.828;4.700;2023-12-14T05:15:04;11.57;;;10.32;;
17151;SDS011;8691;50.828;4.700;2023-12-14T05:17:30;11.45;;;10.15;;
17151;SDS011;8691;50.828;4.700;2023-12-14T05:19:56;12.07;;;10.18;;
17151;SDS011;8691;50.828;4.700;2023-12-14T05:22:23;11.25;;;9.62;;
17151;SDS011;8691;50.828;4.700;2023-12-14T05:24:50;11.23;;;10.02;;
17151;SDS011;8691;50.828;4.700;2023-12-14T05:27:17;12.20;;;10.75;;
17151;SDS011;8691;50.828;4.700;2023-12-14T05:29:44;12.52;;;10.48;;
17151;SDS011;8691;50.828;4.700;2023-12-14T05:32:11;12.73;;;11.30;;
17151;SDS011;8691;50.828;4.700;2023-12-14T05:34:38;12.43;;;10.12;;
17151;SDS011;8691;50.828;4.700;2023-12-14T05:37:05;10.07;;;8.33;;
17151;SDS011;8691;50.828;4.700;2023-12-14T05:39:32;12.43;;;10.95;;
17151;SDS011;8691;50.828;4.700;2023-12-14T05:41:58;12.15;;;10.85;;
17151;SDS011;8691;50.828;4.700;2023-12-14T05:44:25;12.25;;;10.95;;
17151;SDS011;8691;50.828;4.700;2023-12-14T05:46:52;13.35;;;11.18;;
17151;SDS011;8691;50.828;4.700;2023-12-14T05:49:19;13.15;;;11.75;;
17151;SDS011;8691;50.828;4.700;2023-12-14T05:51:46;12.52;;;11.05;;
17151;SDS011;8691;50.828;4.700;2023-12-14T05:54:13;12.50;;;11.20;;
17151;SDS011;8691;50.828;4.700;2023-12-14T05:56:40;12.43;;;10.97;;
17151;SDS011;8691;50.828;4.700;2023-12-14T05:59:07;12.18;;;10.88;;
17151;SDS011;8691;50.828;4.700;2023-12-14T06:01:34;12.05;;;10.23;;
17151;SDS011;8691;50.828;4.700;2023-12-14T06:04:00;12.80;;;10.60;;
17151;SDS011;8691;50.828;4.700;2023-12-14T06:06:27;11.85;;;10.65;;
17151;SDS011;8691;50.828;4.700;2023-12-14T06:08:54;12.30;;;10.82;;
17151;SDS011;8691;50.828;4.700;2023-12-14T06:11:21;13.83;;;11.37;;
17151;SDS011;8691;50.828;4.700;2023-12-14T06:13:48;14.00;;;11.73;;
17151;SDS011;8691;50.828;4.700;2023-12-14T06:16:15;14.10;;;11.70;;
17151;SDS011;8691;50.828;4.700;2023-12-14T06:18:42;12.80;;;10.82;;
17151;SDS011;8691;50.828;4.700;2023-12-14T06:21:11;13.82;;;12.15;;
17151;SDS011;8691;50.828;4.700;2023-12-14T06:23:36;13.88;;;11.50;;
17151;SDS011;8691;50.828;4.700;2023-12-14T06:26:03;12.95;;;11.38;;
17151;SDS011;8691;50.828;4.700;2023-12-14T06:28:29;13.77;;;11.20;;
17151;SDS011;8691;50.828;4.700;2023-12-14T06:30:56;13.98;;;12.43;;
17151;SDS011;8691;50.828;4.700;2023-12-14T06:33:23;13.15;;;11.38;;
17151;SDS011;8691;50.828;4.700;2023-12-14T06:35:50;12.77;;;11.40;;
17151;SDS011;8691;50.828;4.700;2023-12-14T06:38:17;12.77;;;11.38;;
17151;SDS011;8691;50.828;4.700;2023-12-14T06:40:45;13.50;;;10.77;;
17151;SDS011;8691;50.828;4.700;2023-12-14T06:43:12;14.10;;;11.62;;
17151;SDS011;8691;50.828;4.700;2023-12-14T06:45:40;14.90;;;12.20;;
17151;SDS011;8691;50.828;4.700;2023-12-14T06:48:07;13.40;;;11.05;;
17151;SDS011;8691;50.828;4.700;2023-12-14T06:50:35;13.85;;;11.62;;
17151;SDS011;8691;50.828;4.700;2023-12-14T06:53:02;13.00;;;11.60;;
17151;SDS011;8691;50.828;4.700;2023-12-14T06:55:29;14.07;;;11.07;;
17151;SDS011;8691;50.828;4.700;2023-12-14T06:57:55;13.25;;;11.70;;
17151;SDS011;8691;50.828;4.700;2023-12-14T07:00:22;13.45;;;11.65;;
17151;SDS011;8691;50.828;4.700;2023-12-14T07:02:49;12.23;;;10.93;;
17151;SDS011;8691;50.828;4.700;2023-12-14T07:05:17;12.77;;;11.38;;
17151;SDS011;8691;50.828;4.700;2023-12-14T07:07:45;14.32;;;11.68;;
17151;SDS011;8691;50.828;4.700;2023-12-14T07:10:12;13.07;;;11.68;;
17151;SDS011;8691;50.828;4.700;2023-12-14T07:12:39;13.93;;;11.38;;
17151;SDS011;8691;50.828;4.700;2023-12-14T07:15:06;13.20;;;11.30;;
17151;SDS011;8691;50.828;4.700;2023-12-14T07:17:33;13.63;;;11.70;;
17151;SDS011;8691;50.828;4.700;2023-12-14T07:20:00;13.17;;;11.17;;
17151;SDS011;8691;50.828;4.700;2023-12-14T07:22:27;14.80;;;11.43;;
17151;SDS011;8691;50.828;4.700;2023-12-14T07:24:54;13.17;;;11.63;;
17151;SDS011;8691;50.828;4.700;2023-12-14T07:27:21;13.43;;;11.97;;
17151;SDS011;8691;50.828;4.700;2023-12-14T07:29:47;15.50;;;11.60;;
17151;SDS011;8691;50.828;4.700;2023-12-14T07:32:14;11.27;;;8.30;;
17151;SDS011;8691;50.828;4.700;2023-12-14T07:34:41;12.68;;;11.00;;
17151;SDS011;8691;50.828;4.700;2023-12-14T07:37:08;13.43;;;11.15;;
17151;SDS011;8691;50.828;4.700;2023-12-14T07:39:35;12.68;;;11.38;;
17151;SDS011;8691;50.828;4.700;2023-12-14T07:42:02;14.62;;;11.50;;
17151;SDS011;8691;50.828;4.700;2023-12-14T07:44:28;13.30;;;11.55;;
17151;SDS011;8691;50.828;4.700;2023-12-14T07:46:56;14.30;;;11.93;;
17151;SDS011;8691;50.828;4.700;2023-12-14T07:49:22;14.18;;;11.60;;
17151;SDS011;8691;50.828;4.700;2023-12-14T07:51:49;12.43;;;11.10;;
17151;SDS011;8691;50.828;4.700;2023-12-14T07:54:16;13.73;;;11.38;;
17151;SDS011;8691;50.828;4.700;2023-12-14T07:56:43;14.30;;;11.65;;
17151;SDS011;8691;50.828;4.700;2023-12-14T07:59:10;16.80;;;12.20;;
17151;SDS011;8691;50.828;4.700;2023-12-14T08:01:37;14.82;;;11.80;;
17151;SDS011;8691;50.828;4.700;2023-12-14T08:04:04;13.62;;;11.77;;
17151;SDS011;8691;50.828;4.700;2023-12-14T08:06:31;14.05;;;12.02;;
17151;SDS011;8691;50.828;4.700;2023-12-14T08:08:57;14.02;;;11.10;;
17151;SDS011;8691;50.828;4.700;2023-12-14T08:11:25;14.75;;;10.93;;
17151;SDS011;8691;50.828;4.700;2023-12-14T08:13:53;16.48;;;11.65;;
17151;SDS011;8691;50.828;4.700;2023-12-14T08:16:20;14.30;;;11.63;;
17151;SDS011;8691;50.828;4.700;2023-12-14T08:18:48;14.38;;;11.57;;
17151;SDS011;8691;50.828;4.700;2023-12-14T08:21:16;14.02;;;11.57;;
17151;SDS011;8691;50.828;4.700;2023-12-14T08:23:42;16.07;;;12.03;;
17151;SDS011;8691;50.828;4.700;2023-12-14T08:26:09;11.67;;;8.67;;
17151;SDS011;8691;50.828;4.700;2023-12-14T08:28:37;13.65;;;10.98;;
17151;SDS011;8691;50.828;4.700;2023-12-14T08:31:04;13.88;;;10.98;;
17151;SDS011;8691;50.828;4.700;2023-12-14T08:33:31;14.53;;;11.03;;
17151;SDS011;8691;50.828;4.700;2023-12-14T08:35:58;12.45;;;11.12;;
17151;SDS011;8691;50.828;4.700;2023-12-14T08:38:25;12.98;;;10.48;;
17151;SDS011;8691;50.828;4.700;2023-12-14T08:40:52;13.50;;;10.93;;
17151;SDS011;8691;50.828;4.700;2023-12-14T08:43:19;13.60;;;10.23;;
17151;SDS011;8691;50.828;4.700;2023-12-14T08:45:46;13.05;;;11.00;;
17151;SDS011;8691;50.828;4.700;2023-12-14T08:48:13;12.05;;;9.82;;
17151;SDS011;8691;50.828;4.700;2023-12-14T08:50:40;13.20;;;10.05;;
17151;SDS011;8691;50.828;4.700;2023-12-14T08:53:07;12.85;;;10.00;;
17151;SDS011;8691;50.828;4.700;2023-12-14T08:55:34;12.82;;;9.75;;
17151;SDS011;8691;50.828;4.700;2023-12-14T08:58:01;11.52;;;9.35;;
17151;SDS011;8691;50.828;4.700;2023-12-14T09:00:29;12.75;;;9.40;;
17151;SDS011;8691;50.828;4.700;2023-12-14T09:02:55;10.40;;;8.90;;
17151;SDS011;8691;50.828;4.700;2023-12-14T09:05:22;10.70;;;8.70;;
17151;SDS011;8691;50.828;4.700;2023-12-14T09:07:49;10.50;;;9.27;;
17151;SDS011;8691;50.828;4.700;2023-12-14T09:10:16;10.50;;;8.45;;
17151;SDS011;8691;50.828;4.700;2023-12-14T09:12:43;9.52;;;8.07;;
17151;SDS011;8691;50.828;4.700;2023-12-14T09:15:11;9.07;;;8.13;;
17151;SDS011;8691;50.828;4.700;2023-12-14T09:17:38;8.97;;;7.60;;
17151;SDS011;8691;50.828;4.700;2023-12-14T09:20:06;9.43;;;7.17;;
17151;SDS011;8691;50.828;4.700;2023-12-14T09:22:33;8.70;;;7.50;;
17151;SDS011;8691;50.828;4.700;2023-12-14T09:25:00;10.25;;;8.48;;
17151;SDS011;8691;50.828;4.700;2023-12-14T09:27:26;8.55;;;7.65;;
17151;SDS011;8691;50.828;4.700;2023-12-14T09:29:53;8.20;;;7.40;;
17151;SDS011;8691;50.828;4.700;2023-12-14T09:32:20;8.30;;;7.35;;
17151;SDS011;8691;50.828;4.700;2023-12-14T09:34:48;8.88;;;6.93;;
17151;SDS011;8691;50.828;4.700;2023-12-14T09:37:15;8.20;;;7.40;;
17151;SDS011;8691;50.828;4.700;2023-12-14T09:39:42;7.83;;;6.90;;
17151;SDS011;8691;50.828;4.700;2023-12-14T09:42:09;7.55;;;6.80;;
17151;SDS011;8691;50.828;4.700;2023-12-14T09:44:36;7.93;;;6.93;;
17151;SDS011;8691;50.828;4.700;2023-12-14T09:47:03;8.88;;;6.88;;
17151;SDS011;8691;50.828;4.700;2023-12-14T09:49:30;7.45;;;6.38;;
17151;SDS011;8691;50.828;4.700;2023-12-14T09:51:57;6.93;;;6.20;;
17151;SDS011;8691;50.828;4.700;2023-12-14T09:54:27;8.47;;;5.73;;
17151;SDS011;8691;50.828;4.700;2023-12-14T09:56:54;8.05;;;5.50;;
17151;SDS011;8691;50.828;4.700;2023-12-14T09:59:21;5.90;;;5.00;;
17151;SDS011;8691;50.828;4.700;2023-12-14T10:01:48;6.93;;;6.22;;
17151;SDS011;8691;50.828;4.700;2023-12-14T10:04:15;10.95;;;6.18;;
17151;SDS011;8691;50.828;4.700;2023-12-14T10:06:42;6.90;;;5.50;;
17151;SDS011;8691;50.828;4.700;2023-12-14T10:09:08;6.23;;;4.93;;
17151;SDS011;8691;50.828;4.700;2023-12-14T10:11:41;6.50;;;5.88;;
17151;SDS011;8691;50.828;4.700;2023-12-14T10:14:30;7.03;;;5.90;;
17151;SDS011;8691;50.828;4.700;2023-12-14T10:16:41;6.10;;;5.35;;
17151;SDS011;8691;50.828;4.700;2023-12-14T10:19:08;6.85;;;5.38;;
17151;SDS011;8691;50.828;4.700;2023-12-14T10:21:35;6.68;;;5.40;;
17151;SDS011;8691;50.828;4.700;2023-12-14T10:24:01;7.12;;;5.60;;
17151;SDS011;8691;50.828;4.700;2023-12-14T10:26:28;6.00;;;5.33;;
17151;SDS011;8691;50.828;4.700;2023-12-14T10:28:55;5.30;;;4.27;;
17151;SDS011;8691;50.828;4.700;2023-12-14T10:31:22;4.97;;;4.43;;
17151;SDS011;8691;50.828;4.700;2023-12-14T10:33:49;6.43;;;4.30;;
17151;SDS011;8691;50.828;4.700;2023-12-14T10:36:18;6.15;;;4.78;;
17151;SDS011;8691;50.828;4.700;2023-12-14T10:38:43;6.47;;;5.03;;
17151;SDS011;8691;50.828;4.700;2023-12-14T10:41:11;7.13;;;4.80;;
17151;SDS011;8691;50.828;4.700;2023-12-14T10:43:37;6.80;;;4.87;;
17151;SDS011;8691;50.828;4.700;2023-12-14T10:46:05;6.10;;;5.05;;
17151;SDS011;8691;50.828;4.700;2023-12-14T10:48:32;6.40;;;5.20;;
17151;SDS011;8691;50.828;4.700;2023-12-14T10:50:59;7.50;;;5.50;;
17151;SDS011;8691;50.828;4.700;2023-12-14T10:53:25;8.25;;;5.40;;
17151;SDS011;8691;50.828;4.700;2023-12-14T10:55:53;6.97;;;5.55;;
17151;SDS011;8691;50.828;4.700;2023-12-14T10:58:21;7.78;;;5.20;;
17151;SDS011;8691;50.828;4.700;2023-12-14T11:01:00;7.85;;;5.25;;
17151;SDS011;8691;50.828;4.700;2023-12-14T11:03:35;7.97;;;5.87;;
17151;SDS011;8691;50.828;4.700;2023-12-14T11:06:02;6.97;;;5.53;;
17151;SDS011;8691;50.828;4.700;2023-12-14T11:08:29;8.33;;;6.43;;
17151;SDS011;8691;50.828;4.700;2023-12-14T11:11:01;7.93;;;6.03;;
17151;SDS011;8691;50.828;4.700;2023-12-14T11:13:23;7.80;;;6.15;;
17151;SDS011;8691;50.828;4.700;2023-12-14T11:15:50;7.65;;;6.00;;
17151;SDS011;8691;50.828;4.700;2023-12-14T11:18:20;8.73;;;6.65;;
17151;SDS011;8691;50.828;4.700;2023-12-14T11:23:16;8.23;;;7.03;;
17151;SDS011;8691;50.828;4.700;2023-12-14T11:25:48;10.10;;;7.05;;
17151;SDS011;8691;50.828;4.700;2023-12-14T11:28:15;11.83;;;7.10;;
17151;SDS011;8691;50.828;4.700;2023-12-14T11:30:43;7.93;;;6.50;;
17151;SDS011;8691;50.828;4.700;2023-12-14T11:33:08;8.63;;;7.30;;
17151;SDS011;8691;50.828;4.700;2023-12-14T11:35:36;8.70;;;6.88;;
17151;SDS011;8691;50.828;4.700;2023-12-14T11:38:02;7.43;;;6.60;;
17151;SDS011;8691;50.828;4.700;2023-12-14T11:40:29;8.40;;;6.37;;
17151;SDS011;8691;50.828;4.700;2023-12-14T11:43:01;9.20;;;6.22;;
17151;SDS011;8691;50.828;4.700;2023-12-14T11:45:27;8.10;;;5.60;;
17151;SDS011;8691;50.828;4.700;2023-12-14T11:47:53;8.13;;;4.70;;
17151;SDS011;8691;50.828;4.700;2023-12-14T11:50:21;8.93;;;5.68;;
17151;SDS011;8691;50.828;4.700;2023-12-14T11:52:48;7.63;;;5.13;;
17151;SDS011;8691;50.828;4.700;2023-12-14T11:55:15;7.55;;;5.22;;
17151;SDS011;8691;50.828;4.700;2023-12-14T11:57:48;8.02;;;5.00;;
17151;SDS011;8691;50.828;4.700;2023-12-14T12:00:15;7.25;;;5.00;;
17151;SDS011;8691;50.828;4.700;2023-12-14T12:02:42;5.53;;;4.50;;
17151;SDS011;8691;50.828;4.700;2023-12-14T12:05:08;6.97;;;4.90;;
17151;SDS011;8691;50.828;4.700;2023-12-14T12:07:35;6.95;;;4.43;;
17151;SDS011;8691;50.828;4.700;2023-12-14T12:10:02;7.10;;;4.80;;
17151;SDS011;8691;50.828;4.700;2023-12-14T12:12:29;6.88;;;4.40;;
17151;SDS011;8691;50.828;4.700;2023-12-14T12:14:56;8.00;;;4.70;;
17151;SDS011;8691;50.828;4.700;2023-12-14T12:17:23;7.53;;;4.28;;
17151;SDS011;8691;50.828;4.700;2023-12-14T12:19:50;8.65;;;4.53;;
17151;SDS011;8691;50.828;4.700;2023-12-14T12:22:17;7.10;;;3.97;;
17151;SDS011;8691;50.828;4.700;2023-12-14T12:24:44;5.93;;;3.90;;
17151;SDS011;8691;50.828;4.700;2023-12-14T12:27:11;7.80;;;4.40;;
17151;SDS011;8691;50.828;4.700;2023-12-14T12:29:37;7.10;;;3.70;;
17151;SDS011;8691;50.828;4.700;2023-12-14T12:32:04;9.57;;;4.22;;
17151;SDS011;8691;50.828;4.700;2023-12-14T12:34:31;5.30;;;3.95;;
17151;SDS011;8691;50.828;4.700;2023-12-14T12:36:58;6.18;;;4.03;;
17151;SDS011;8691;50.828;4.700;2023-12-14T12:39:25;5.60;;;3.97;;
17151;SDS011;8691;50.828;4.700;2023-12-14T12:41:52;7.80;;;3.67;;
17151;SDS011;8691;50.828;4.700;2023-12-14T12:44:19;6.93;;;4.40;;
17151;SDS011;8691;50.828;4.700;2023-12-14T12:46:46;5.07;;;3.80;;
17151;SDS011;8691;50.828;4.700;2023-12-14T12:49:12;6.03;;;4.10;;
17151;SDS011;8691;50.828;4.700;2023-12-14T12:51:39;6.23;;;4.10;;
17151;SDS011;8691;50.828;4.700;2023-12-14T12:54:06;8.80;;;4.50;;
17151;SDS011;8691;50.828;4.700;2023-12-14T12:56:33;5.10;;;4.00;;
17151;SDS011;8691;50.828;4.700;2023-12-14T12:59:00;7.03;;;4.20;;
17151;SDS011;8691;50.828;4.700;2023-12-14T13:01:27;6.50;;;3.80;;
17151;SDS011;8691;50.828;4.700;2023-12-14T13:03:54;7.00;;;4.30;;
17151;SDS011;8691;50.828;4.700;2023-12-14T13:06:21;6.67;;;4.30;;
17151;SDS011;8691;50.828;4.700;2023-12-14T13:08:48;6.85;;;4.47;;
17151;SDS011;8691;50.828;4.700;2023-12-14T13:11:15;6.63;;;4.00;;
17151;SDS011;8691;50.828;4.700;2023-12-14T13:13:41;7.10;;;4.30;;
17151;SDS011;8691;50.828;4.700;2023-12-14T13:16:10;7.22;;;4.50;;
17151;SDS011;8691;50.828;4.700;2023-12-14T13:18:36;8.15;;;4.22;;
17151;SDS011;8691;50.828;4.700;2023-12-14T13:21:03;5.38;;;4.07;;
17151;SDS011;8691;50.828;4.700;2023-12-14T13:23:30;6.93;;;4.62;;
17151;SDS011;8691;50.828;4.700;2023-12-14T13:25:57;5.47;;;4.18;;
17151;SDS011;8691;50.828;4.700;2023-12-14T13:28:25;5.95;;;4.80;;
17151;SDS011;8691;50.828;4.700;2023-12-14T13:30:51;6.77;;;4.23;;
17151;SDS011;8691;50.828;4.700;2023-12-14T13:33:18;7.75;;;4.50;;
17151;SDS011;8691;50.828;4.700;2023-12-14T13:35:46;6.40;;;4.87;;
17151;SDS011;8691;50.828;4.700;2023-12-14T13:38:13;5.67;;;4.17;;
17151;SDS011;8691;50.828;4.700;2023-12-14T13:40:40;7.37;;;4.97;;
17151;SDS011;8691;50.828;4.700;2023-12-14T13:43:07;6.90;;;4.80;;
17151;SDS011;8691;50.828;4.700;2023-12-14T13:45:34;7.83;;;5.17;;
17151;SDS011;8691;50.828;4.700;2023-12-14T13:48:00;8.97;;;5.57;;
17151;SDS011;8691;50.828;4.700;2023-12-14T13:50:27;6.83;;;5.00;;
17151;SDS011;8691;50.828;4.700;2023-12-14T13:52:55;7.75;;;5.00;;
17151;SDS011;8691;50.828;4.700;2023-12-14T13:55:22;7.75;;;4.80;;
17151;SDS011;8691;50.828;4.700;2023-12-14T13:57:49;9.48;;;4.90;;
17151;SDS011;8691;50.828;4.700;2023-12-14T14:00:16;6.05;;;4.70;;
17151;SDS011;8691;50.828;4.700;2023-12-14T14:02:43;8.05;;;5.12;;
17151;SDS011;8691;50.828;4.700;2023-12-14T14:05:09;7.82;;;4.97;;
17151;SDS011;8691;50.828;4.700;2023-12-14T14:07:37;7.80;;;5.10;;
17151;SDS011;8691;50.828;4.700;2023-12-14T14:10:04;7.67;;;5.20;;
17151;SDS011;8691;50.828;4.700;2023-12-14T14:12:31;7.30;;;4.83;;
17151;SDS011;8691;50.828;4.700;2023-12-14T14:14:57;5.87;;;3.70;;
17151;SDS011;8691;50.828;4.700;2023-12-14T14:17:24;7.70;;;4.97;;
17151;SDS011;8691;50.828;4.700;2023-12-14T14:19:51;7.00;;;5.07;;
17151;SDS011;8691;50.828;4.700;2023-12-14T14:22:18;8.77;;;5.10;;
17151;SDS011;8691;50.828;4.700;2023-12-14T14:24:45;7.85;;;4.90;;
17151;SDS011;8691;50.828;4.700;2023-12-14T14:27:12;7.07;;;5.12;;
17151;SDS011;8691;50.828;4.700;2023-12-14T14:29:39;8.27;;;5.45;;
17151;SDS011;8691;50.828;4.700;2023-12-14T14:32:06;6.62;;;5.20;;
17151;SDS011;8691;50.828;4.700;2023-12-14T14:34:32;7.88;;;5.30;;
17151;SDS011;8691;50.828;4.700;2023-12-14T14:36:59;7.85;;;5.50;;
17151;SDS011;8691;50.828;4.700;2023-12-14T14:39:26;7.43;;;5.70;;
17151;SDS011;8691;50.828;4.700;2023-12-14T14:41:53;7.97;;;5.53;;
17151;SDS011;8691;50.828;4.700;2023-12-14T14:44:20;7.90;;;5.40;;
17151;SDS011;8691;50.828;4.700;2023-12-14T14:46:47;7.13;;;5.17;;